sensor_id;sensor_type;location;lat;lon;timestamp;pressure;altitude;pressure_sealevel;temperature;humidity
8318;BME280;4196;48.926;8.964;2023-02-11T00:00:57;101105.13;;;-4.66;100.00
8318;BME280;4196;48.926;8.964;2023-02-11T00:03:43;101119.06;;;-4.61;100.00
8318;BME280;4196;48.926;8.964;2023-02-11T00:06:31;101153.16;;;-4.38;100.00
8318;BME280;4196;48.926;8.964;2023-02-11T00:09:18;101094.13;;;-4.85;100.00
8318;BME280;4196;48.926;8.964;2023-02-11T00:12:04;101102.25;;;-4.79;100.00
8318;BME280;4196;48.926;8.964;2023-02-11T00:14:51;101125.34;;;-4.66;100.00
8318;BME280;4196;48.926;8.964;2023-02-11T00:17:37;101122.06;;;-4.65;100.00
8318;BME280;4196;48.926;8.964;2023-02-11T00:20:24;101142.94;;;-4.48;100.00
8318;BME280;4196;48.926;8.964;2023-02-11T00:23:11;101128.00;;;-4.64;100.00
8318;BME280;4196;48.926;8.964;2023-02-11T00:25:57;101153.25;;;-4.55;100.00
8318;BME280;4196;48.926;8.964;2023-02-11T00:28:44;101120.78;;;-4.70;100.00
8318;BME280;4196;48.926;8.964;2023-02-11T00:31:32;101130.13;;;-4.69;100.00
8318;BME280;4196;48.926;8.964;2023-02-11T00:34:18;101072.72;;;-5.07;100.00
8318;BME280;4196;48.926;8.964;2023-02-11T00:37:05;101165.78;;;-4.66;100.00
8318;BME280;4196;48.926;8.964;2023-02-11T00:39:52;101120.31;;;-4.66;100.00
8318;BME280;4196;48.926;8.964;2023-02-11T00:42:38;101149.06;;;-4.55;100.00
8318;BME280;4196;48.926;8.964;2023-02-11T00:45:25;101110.75;;;-4.87;100.00
8318;BME280;4196;48.926;8.964;2023-02-11T00:48:11;101125.16;;;-4.86;100.00
8318;BME280;4196;48.926;8.964;2023-02-11T00:50:57;101105.16;;;-4.93;100.00
8318;BME280;4196;48.926;8.964;2023-02-11T00:53:44;101105.59;;;-4.89;100.00
8318;BME280;4196;48.926;8.964;2023-02-11T00:56:30;101134.91;;;-4.72;100.00
8318;BME280;4196;48.926;8.964;2023-02-11T00:59:16;101104.84;;;-4.69;100.00
8318;BME280;4196;48.926;8.964;2023-02-11T01:02:03;101123.50;;;-4.30;100.00
8318;BME280;4196;48.926;8.964;2023-02-11T01:04:49;101101.72;;;-4.28;100.00
8318;BME280;4196;48.926;8.964;2023-02-11T01:07:35;101087.34;;;-4.76;100.00
8318;BME280;4196;48.926;8.964;2023-02-11T01:10:21;101133.22;;;-4.63;100.00
8318;BME280;4196;48.926;8.964;2023-02-11T01:13:08;101107.84;;;-4.73;100.00
8318;BME280;4196;48.926;8.964;2023-02-11T01:15:55;101122.03;;;-4.56;100.00
8318;BME280;4196;48.926;8.964;2023-02-11T01:18:42;101126.31;;;-4.55;100.00
8318;BME280;4196;48.926;8.964;2023-02-11T01:21:29;101089.53;;;-4.89;100.00
8318;BME280;4196;48.926;8.964;2023-02-11T01:24:15;101116.72;;;-4.68;100.00
8318;BME280;4196;48.926;8.964;2023-02-11T01:27:02;101095.06;;;-4.93;100.00
8318;BME280;4196;48.926;8.964;2023-02-11T01:29:48;101043.25;;;-5.26;100.00
8318;BME280;4196;48.926;8.964;2023-02-11T01:32:35;101061.75;;;-5.17;100.00
8318;BME280;4196;48.926;8.964;2023-02-11T01:35:21;101111.69;;;-4.68;100.00
8318;BME280;4196;48.926;8.964;2023-02-11T01:38:17;101058.88;;;-4.83;100.00
8318;BME280;4196;48.926;8.964;2023-02-11T01:41:07;101102.69;;;-4.55;100.00
8318;BME280;4196;48.926;8.964;2023-02-11T01:43:54;101097.53;;;-4.38;100.00
8318;BME280;4196;48.926;8.964;2023-02-11T01:46:40;101112.94;;;-4.16;100.00
8318;BME280;4196;48.926;8.964;2023-02-11T01:49:30;101106.03;;;-4.08;100.00
8318;BME280;4196;48.926;8.964;2023-02-11T01:52:26;101112.59;;;-4.10;100.00
8318;BME280;4196;48.926;8.964;2023-02-11T01:55:15;101090.25;;;-4.63;100.00
8318;BME280;4196;48.926;8.964;2023-02-11T01:58:21;101057.97;;;-5.03;100.00
8318;BME280;4196;48.926;8.964;2023-02-11T02:01:10;101086.00;;;-4.72;100.00
8318;BME280;4196;48.926;8.964;2023-02-11T02:04:00;101069.88;;;-4.83;100.00
8318;BME280;4196;48.926;8.964;2023-02-11T02:06:55;101031.13;;;-5.11;100.00
8318;BME280;4196;48.926;8.964;2023-02-11T02:09:48;101069.34;;;-4.89;100.00
8318;BME280;4196;48.926;8.964;2023-02-11T02:12:38;101045.66;;;-4.62;100.00
8318;BME280;4196;48.926;8.964;2023-02-11T02:15:32;101083.91;;;-4.49;100.00
8318;BME280;4196;48.926;8.964;2023-02-11T02:39:34;101073.94;;;-4.66;100.00
8318;BME280;4196;48.926;8.964;2023-02-11T02:42:22;101071.47;;;-4.56;100.00
8318;BME280;4196;48.926;8.964;2023-02-11T02:45:10;101009.09;;;-5.03;100.00
8318;BME280;4196;48.926;8.964;2023-02-11T02:47:57;101036.22;;;-4.73;100.00
8318;BME280;4196;48.926;8.964;2023-02-11T02:50:44;101028.06;;;-4.61;100.00
8318;BME280;4196;48.926;8.964;2023-02-11T02:53:43;101063.59;;;-4.40;100.00
8318;BME280;4196;48.926;8.964;2023-02-11T03:03:03;101040.03;;;-4.30;100.00
8318;BME280;4196;48.926;8.964;2023-02-11T03:05:56;101021.03;;;-4.06;100.00
8318;BME280;4196;48.926;8.964;2023-02-11T03:08:52;101006.50;;;-4.38;100.00
8318;BME280;4196;48.926;8.964;2023-02-11T03:11:40;100984.66;;;-4.56;100.00
8318;BME280;4196;48.926;8.964;2023-02-11T03:14:28;100968.44;;;-4.58;100.00
8318;BME280;4196;48.926;8.964;2023-02-11T03:17:16;101003.91;;;-4.48;100.00
8318;BME280;4196;48.926;8.964;2023-02-11T03:20:05;101021.84;;;-4.26;100.00
8318;BME280;4196;48.926;8.964;2023-02-11T03:23:00;101018.78;;;-4.51;100.00
8318;BME280;4196;48.926;8.964;2023-02-11T03:25:52;101012.59;;;-4.55;100.00
8318;BME280;4196;48.926;8.964;2023-02-11T03:31:38;101020.69;;;-4.30;100.00
8318;BME280;4196;48.926;8.964;2023-02-11T03:34:47;101022.00;;;-4.44;100.00
8318;BME280;4196;48.926;8.964;2023-02-11T03:40:30;100988.38;;;-4.14;100.00
8318;BME280;4196;48.926;8.964;2023-02-11T03:43:19;100984.25;;;-4.03;100.00
8318;BME280;4196;48.926;8.964;2023-02-11T03:46:09;100994.75;;;-3.98;100.00
8318;BME280;4196;48.926;8.964;2023-02-11T03:49:02;101015.09;;;-3.57;100.00
8318;BME280;4196;48.926;8.964;2023-02-11T03:51:50;100969.00;;;-3.84;100.00
8318;BME280;4196;48.926;8.964;2023-02-11T03:54:40;100985.94;;;-3.83;100.00
8318;BME280;4196;48.926;8.964;2023-02-11T03:57:28;100997.09;;;-3.81;100.00
8318;BME280;4196;48.926;8.964;2023-02-11T04:00:15;101005.44;;;-3.82;100.00
8318;BME280;4196;48.926;8.964;2023-02-11T04:03:02;101007.91;;;-3.63;100.00
8318;BME280;4196;48.926;8.964;2023-02-11T04:05:49;101017.66;;;-3.47;100.00
8318;BME280;4196;48.926;8.964;2023-02-11T04:08:36;101035.66;;;-3.44;100.00
8318;BME280;4196;48.926;8.964;2023-02-11T04:11:22;101042.91;;;-3.18;100.00
8318;BME280;4196;48.926;8.964;2023-02-11T04:14:08;101012.63;;;-3.27;100.00
8318;BME280;4196;48.926;8.964;2023-02-11T04:16:54;101033.16;;;-3.03;100.00
8318;BME280;4196;48.926;8.964;2023-02-11T04:19:41;101000.72;;;-3.18;100.00
8318;BME280;4196;48.926;8.964;2023-02-11T04:22:28;101018.97;;;-2.91;100.00
8318;BME280;4196;48.926;8.964;2023-02-11T04:25:15;101032.41;;;-2.72;100.00
8318;BME280;4196;48.926;8.964;2023-02-11T04:28:02;101026.81;;;-2.88;100.00
8318;BME280;4196;48.926;8.964;2023-02-11T04:30:49;100992.09;;;-3.09;100.00
8318;BME280;4196;48.926;8.964;2023-02-11T04:33:36;100980.97;;;-3.11;100.00
8318;BME280;4196;48.926;8.964;2023-02-11T04:36:22;100975.38;;;-3.18;100.00
8318;BME280;4196;48.926;8.964;2023-02-11T04:39:08;100987.56;;;-3.24;100.00
8318;BME280;4196;48.926;8.964;2023-02-11T04:41:55;101013.41;;;-3.07;100.00
8318;BME280;4196;48.926;8.964;2023-02-11T04:44:42;101021.25;;;-3.04;100.00
8318;BME280;4196;48.926;8.964;2023-02-11T04:47:28;101007.06;;;-3.02;100.00
8318;BME280;4196;48.926;8.964;2023-02-11T04:50:14;100995.41;;;-3.10;100.00
8318;BME280;4196;48.926;8.964;2023-02-11T04:53:00;101030.13;;;-2.99;100.00
8318;BME280;4196;48.926;8.964;2023-02-11T04:55:48;101001.25;;;-3.11;100.00
8318;BME280;4196;48.926;8.964;2023-02-11T04:58:36;101022.53;;;-2.79;100.00
8318;BME280;4196;48.926;8.964;2023-02-11T05:01:22;100993.13;;;-3.07;100.00
8318;BME280;4196;48.926;8.964;2023-02-11T05:04:09;100995.78;;;-2.75;100.00
8318;BME280;4196;48.926;8.964;2023-02-11T05:06:55;100954.06;;;-2.69;100.00
8318;BME280;4196;48.926;8.964;2023-02-11T05:09:44;100951.66;;;-2.35;100.00
8318;BME280;4196;48.926;8.964;2023-02-11T05:12:30;100930.81;;;-2.53;100.00
8318;BME280;4196;48.926;8.964;2023-02-11T05:15:17;100928.88;;;-2.45;100.00
8318;BME280;4196;48.926;8.964;2023-02-11T05:18:03;100945.41;;;-2.60;100.00
8318;BME280;4196;48.926;8.964;2023-02-11T05:20:50;100940.97;;;-2.63;100.00
8318;BME280;4196;48.926;8.964;2023-02-11T05:23:37;100908.38;;;-2.58;100.00
8318;BME280;4196;48.926;8.964;2023-02-11T05:26:24;100918.50;;;-2.58;100.00
8318;BME280;4196;48.926;8.964;2023-02-11T05:29:10;100930.81;;;-2.63;100.00
8318;BME280;4196;48.926;8.964;2023-02-11T05:31:58;100940.66;;;-2.46;100.00
8318;BME280;4196;48.926;8.964;2023-02-11T05:34:45;100922.13;;;-2.77;100.00
8318;BME280;4196;48.926;8.964;2023-02-11T05:37:31;100929.94;;;-2.63;100.00
8318;BME280;4196;48.926;8.964;2023-02-11T05:40:17;100911.31;;;-2.32;100.00
8318;BME280;4196;48.926;8.964;2023-02-11T05:43:04;100959.97;;;-2.26;100.00
8318;BME280;4196;48.926;8.964;2023-02-11T05:45:50;100927.84;;;-2.47;100.00
8318;BME280;4196;48.926;8.964;2023-02-11T05:48:37;100949.66;;;-2.39;100.00
8318;BME280;4196;48.926;8.964;2023-02-11T05:51:23;100957.16;;;-2.19;100.00
8318;BME280;4196;48.926;8.964;2023-02-11T05:54:10;100958.59;;;-2.00;100.00
8318;BME280;4196;48.926;8.964;2023-02-11T05:56:57;100996.69;;;-1.78;100.00
8318;BME280;4196;48.926;8.964;2023-02-11T05:59:43;100913.50;;;-2.14;100.00
8318;BME280;4196;48.926;8.964;2023-02-11T06:02:29;100939.31;;;-1.98;100.00
8318;BME280;4196;48.926;8.964;2023-02-11T06:05:16;100905.34;;;-2.10;100.00
8318;BME280;4196;48.926;8.964;2023-02-11T06:08:03;100961.97;;;-1.89;100.00
8318;BME280;4196;48.926;8.964;2023-02-11T06:10:49;100981.69;;;-1.75;100.00
8318;BME280;4196;48.926;8.964;2023-02-11T06:13:35;100958.88;;;-2.07;100.00
8318;BME280;4196;48.926;8.964;2023-02-11T06:16:22;100902.41;;;-2.27;100.00
8318;BME280;4196;48.926;8.964;2023-02-11T06:19:08;100926.97;;;-2.15;100.00
8318;BME280;4196;48.926;8.964;2023-02-11T06:21:55;100981.66;;;-1.87;100.00
8318;BME280;4196;48.926;8.964;2023-02-11T06:24:42;100976.13;;;-2.03;100.00
8318;BME280;4196;48.926;8.964;2023-02-11T06:27:46;100940.09;;;-2.31;100.00
8318;BME280;4196;48.926;8.964;2023-02-11T06:30:32;100938.63;;;-2.17;100.00
8318;BME280;4196;48.926;8.964;2023-02-11T06:33:19;100948.78;;;-2.17;100.00
8318;BME280;4196;48.926;8.964;2023-02-11T06:36:26;100970.50;;;-1.99;100.00
8318;BME280;4196;48.926;8.964;2023-02-11T06:39:13;100961.44;;;-2.07;100.00
8318;BME280;4196;48.926;8.964;2023-02-11T06:41:59;100950.09;;;-2.23;100.00
8318;BME280;4196;48.926;8.964;2023-02-11T06:44:45;100950.88;;;-2.02;100.00
8318;BME280;4196;48.926;8.964;2023-02-11T06:47:31;100948.22;;;-2.03;100.00
8318;BME280;4196;48.926;8.964;2023-02-11T06:50:18;100924.88;;;-2.31;100.00
8318;BME280;4196;48.926;8.964;2023-02-11T06:53:04;100948.56;;;-2.21;100.00
8318;BME280;4196;48.926;8.964;2023-02-11T06:55:51;100912.19;;;-2.31;100.00
8318;BME280;4196;48.926;8.964;2023-02-11T06:58:38;100970.72;;;-2.18;100.00
8318;BME280;4196;48.926;8.964;2023-02-11T07:01:26;100991.56;;;-1.90;100.00
8318;BME280;4196;48.926;8.964;2023-02-11T07:04:13;100961.63;;;-1.72;100.00
8318;BME280;4196;48.926;8.964;2023-02-11T07:07:00;100925.63;;;-1.66;100.00
8318;BME280;4196;48.926;8.964;2023-02-11T07:09:46;100928.66;;;-1.60;100.00
8318;BME280;4196;48.926;8.964;2023-02-11T07:12:33;100937.50;;;-1.55;100.00
8318;BME280;4196;48.926;8.964;2023-02-11T07:15:19;100984.53;;;-1.27;100.00
8318;BME280;4196;48.926;8.964;2023-02-11T07:18:05;100975.28;;;-1.48;100.00
8318;BME280;4196;48.926;8.964;2023-02-11T07:20:52;100954.13;;;-1.71;100.00
8318;BME280;4196;48.926;8.964;2023-02-11T07:23:39;101004.84;;;-1.38;100.00
8318;BME280;4196;48.926;8.964;2023-02-11T07:26:26;101005.63;;;-1.39;100.00
8318;BME280;4196;48.926;8.964;2023-02-11T07:29:14;101000.09;;;-1.34;100.00
8318;BME280;4196;48.926;8.964;2023-02-11T07:32:00;101009.81;;;-1.06;100.00
8318;BME280;4196;48.926;8.964;2023-02-11T07:34:47;101001.56;;;-0.92;100.00
8318;BME280;4196;48.926;8.964;2023-02-11T07:37:34;101001.69;;;-0.79;100.00
8318;BME280;4196;48.926;8.964;2023-02-11T07:40:20;100955.56;;;-1.07;100.00
8318;BME280;4196;48.926;8.964;2023-02-11T07:43:06;100952.69;;;-0.76;100.00
8318;BME280;4196;48.926;8.964;2023-02-11T07:45:53;100971.16;;;-0.67;100.00
8318;BME280;4196;48.926;8.964;2023-02-11T07:48:39;100994.09;;;-0.55;100.00
8318;BME280;4196;48.926;8.964;2023-02-11T07:51:28;100991.09;;;-0.50;100.00
8318;BME280;4196;48.926;8.964;2023-02-11T07:54:14;100929.59;;;-0.67;100.00
8318;BME280;4196;48.926;8.964;2023-02-11T07:57:00;100942.31;;;-0.44;100.00
8318;BME280;4196;48.926;8.964;2023-02-11T07:59:47;100963.63;;;-0.18;100.00
8318;BME280;4196;48.926;8.964;2023-02-11T08:02:33;100958.13;;;-0.36;100.00
8318;BME280;4196;48.926;8.964;2023-02-11T08:05:20;100934.00;;;-0.41;100.00
8318;BME280;4196;48.926;8.964;2023-02-11T08:08:06;100977.03;;;-0.33;100.00
8318;BME280;4196;48.926;8.964;2023-02-11T08:10:53;100971.41;;;-0.29;100.00
8318;BME280;4196;48.926;8.964;2023-02-11T08:13:39;100969.16;;;-0.12;100.00
8318;BME280;4196;48.926;8.964;2023-02-11T08:16:28;100975.25;;;-0.10;100.00
8318;BME280;4196;48.926;8.964;2023-02-11T08:19:16;100970.47;;;-0.06;100.00
8318;BME280;4196;48.926;8.964;2023-02-11T08:22:02;100958.06;;;-0.13;100.00
8318;BME280;4196;48.926;8.964;2023-02-11T08:24:48;100940.16;;;-0.14;100.00
8318;BME280;4196;48.926;8.964;2023-02-11T08:27:37;100966.75;;;0.14;100.00
8318;BME280;4196;48.926;8.964;2023-02-11T08:30:24;100948.66;;;0.35;100.00
8318;BME280;4196;48.926;8.964;2023-02-11T08:33:12;100967.66;;;0.90;100.00
8318;BME280;4196;48.926;8.964;2023-02-11T08:35:59;100949.63;;;1.00;100.00
8318;BME280;4196;48.926;8.964;2023-02-11T08:38:46;100957.72;;;1.33;100.00
8318;BME280;4196;48.926;8.964;2023-02-11T08:41:34;100931.00;;;1.28;100.00
8318;BME280;4196;48.926;8.964;2023-02-11T08:44:21;100961.25;;;1.88;100.00
8318;BME280;4196;48.926;8.964;2023-02-11T08:47:08;100950.59;;;1.95;100.00
8318;BME280;4196;48.926;8.964;2023-02-11T08:49:55;100960.97;;;2.11;100.00
8318;BME280;4196;48.926;8.964;2023-02-11T08:52:41;100952.84;;;2.32;100.00
8318;BME280;4196;48.926;8.964;2023-02-11T08:55:29;100942.41;;;2.42;100.00
8318;BME280;4196;48.926;8.964;2023-02-11T08:58:15;100960.84;;;2.51;100.00
8318;BME280;4196;48.926;8.964;2023-02-11T09:01:15;100957.47;;;2.37;98.00
8318;BME280;4196;48.926;8.964;2023-02-11T09:04:02;100960.00;;;2.09;100.00
8318;BME280;4196;48.926;8.964;2023-02-11T09:06:48;100950.22;;;1.89;100.00
8318;BME280;4196;48.926;8.964;2023-02-11T09:09:34;100957.22;;;1.78;100.00
8318;BME280;4196;48.926;8.964;2023-02-11T09:12:21;100957.28;;;1.93;100.00
8318;BME280;4196;48.926;8.964;2023-02-11T09:15:08;100968.91;;;1.75;100.00
8318;BME280;4196;48.926;8.964;2023-02-11T09:17:54;100963.22;;;1.52;100.00
8318;BME280;4196;48.926;8.964;2023-02-11T09:20:41;100956.44;;;1.53;100.00
8318;BME280;4196;48.926;8.964;2023-02-11T09:23:27;100934.47;;;1.55;100.00
8318;BME280;4196;48.926;8.964;2023-02-11T09:26:16;100953.06;;;1.80;100.00
8318;BME280;4196;48.926;8.964;2023-02-11T09:29:04;100947.13;;;2.08;100.00
8318;BME280;4196;48.926;8.964;2023-02-11T09:31:50;100948.22;;;2.11;100.00
8318;BME280;4196;48.926;8.964;2023-02-11T09:34:37;100958.19;;;2.50;100.00
8318;BME280;4196;48.926;8.964;2023-02-11T09:37:24;100964.75;;;2.59;100.00
8318;BME280;4196;48.926;8.964;2023-02-11T09:40:11;100931.69;;;2.62;100.00
8318;BME280;4196;48.926;8.964;2023-02-11T09:43:03;100938.31;;;2.74;100.00
8318;BME280;4196;48.926;8.964;2023-02-11T09:45:54;100971.34;;;3.13;100.00
8318;BME280;4196;48.926;8.964;2023-02-11T09:48:43;100941.97;;;3.22;100.00
8318;BME280;4196;48.926;8.964;2023-02-11T09:51:44;100991.78;;;3.73;99.07
8318;BME280;4196;48.926;8.964;2023-02-11T09:54:40;100981.75;;;3.92;96.60
8318;BME280;4196;48.926;8.964;2023-02-11T09:57:33;100981.25;;;4.30;93.12
8318;BME280;4196;48.926;8.964;2023-02-11T10:00:27;100988.88;;;4.45;91.87
8318;BME280;4196;48.926;8.964;2023-02-11T10:12:38;100990.72;;;5.31;86.12
8318;BME280;4196;48.926;8.964;2023-02-11T10:24:37;100995.47;;;5.41;88.69
8318;BME280;4196;48.926;8.964;2023-02-11T10:27:34;100991.69;;;5.51;89.47
8318;BME280;4196;48.926;8.964;2023-02-11T10:30:28;100974.06;;;5.58;89.36
8318;BME280;4196;48.926;8.964;2023-02-11T10:33:22;100980.84;;;5.74;89.04
8318;BME280;4196;48.926;8.964;2023-02-11T10:36:12;100984.38;;;5.94;86.84
8318;BME280;4196;48.926;8.964;2023-02-11T10:39:01;100977.88;;;6.02;87.45
8318;BME280;4196;48.926;8.964;2023-02-11T10:42:05;100941.59;;;5.96;86.27
8318;BME280;4196;48.926;8.964;2023-02-11T10:45:03;100970.53;;;6.29;85.17
8318;BME280;4196;48.926;8.964;2023-02-11T10:47:49;100937.66;;;6.22;85.00
8318;BME280;4196;48.926;8.964;2023-02-11T10:50:36;100950.88;;;6.49;83.75
8318;BME280;4196;48.926;8.964;2023-02-11T10:53:22;100945.03;;;6.53;83.35
8318;BME280;4196;48.926;8.964;2023-02-11T10:56:11;100920.94;;;6.32;82.58
8318;BME280;4196;48.926;8.964;2023-02-11T10:59:01;100949.66;;;6.61;82.89
8318;BME280;4196;48.926;8.964;2023-02-11T11:01:53;100909.28;;;6.60;82.52
8318;BME280;4196;48.926;8.964;2023-02-11T11:04:42;100925.91;;;6.87;81.71
8318;BME280;4196;48.926;8.964;2023-02-11T11:07:31;100930.34;;;6.91;81.49
8318;BME280;4196;48.926;8.964;2023-02-11T11:10:37;100926.22;;;6.74;81.54
8318;BME280;4196;48.926;8.964;2023-02-11T11:13:34;100931.47;;;6.77;81.85
8318;BME280;4196;48.926;8.964;2023-02-11T11:21:59;100917.19;;;7.05;80.38
8318;BME280;4196;48.926;8.964;2023-02-11T11:24:46;100910.28;;;7.04;79.67
8318;BME280;4196;48.926;8.964;2023-02-11T11:27:39;100891.84;;;6.94;79.44
8318;BME280;4196;48.926;8.964;2023-02-11T11:30:52;100921.56;;;7.28;78.68
8318;BME280;4196;48.926;8.964;2023-02-11T11:33:41;100920.44;;;7.42;79.26
8318;BME280;4196;48.926;8.964;2023-02-11T11:36:33;100927.31;;;7.64;77.81
8318;BME280;4196;48.926;8.964;2023-02-11T11:39:26;100894.69;;;7.65;76.70
8318;BME280;4196;48.926;8.964;2023-02-11T11:42:24;100922.56;;;7.97;77.19
8318;BME280;4196;48.926;8.964;2023-02-11T11:48:26;100921.41;;;8.12;74.08
8318;BME280;4196;48.926;8.964;2023-02-11T11:51:13;100921.72;;;8.21;74.54
8318;BME280;4196;48.926;8.964;2023-02-11T11:54:03;100906.06;;;8.39;74.35
8318;BME280;4196;48.926;8.964;2023-02-11T11:57:04;100894.63;;;8.56;73.68
8318;BME280;4196;48.926;8.964;2023-02-11T11:59:56;100888.03;;;8.64;72.13
8318;BME280;4196;48.926;8.964;2023-02-11T12:06:09;100910.03;;;8.79;71.24
8318;BME280;4196;48.926;8.964;2023-02-11T12:15:24;100920.91;;;8.44;72.90
8318;BME280;4196;48.926;8.964;2023-02-11T12:21:21;100918.75;;;8.57;72.84
8318;BME280;4196;48.926;8.964;2023-02-11T12:24:39;100914.22;;;8.27;73.42
8318;BME280;4196;48.926;8.964;2023-02-11T12:43:11;100917.78;;;8.79;71.46
8318;BME280;4196;48.926;8.964;2023-02-11T12:49:18;100917.03;;;8.81;70.63
8318;BME280;4196;48.926;8.964;2023-02-11T12:52:34;100914.66;;;8.62;70.84
8318;BME280;4196;48.926;8.964;2023-02-11T12:55:29;100885.47;;;8.40;70.85
8318;BME280;4196;48.926;8.964;2023-02-11T12:58:25;100907.28;;;8.49;71.06
8318;BME280;4196;48.926;8.964;2023-02-11T13:01:37;100907.16;;;8.45;70.95
8318;BME280;4196;48.926;8.964;2023-02-11T13:04:28;100861.81;;;8.06;71.99
8318;BME280;4196;48.926;8.964;2023-02-11T13:07:30;100869.84;;;8.13;71.70
8318;BME280;4196;48.926;8.964;2023-02-11T13:10:31;100883.00;;;8.43;71.32
8318;BME280;4196;48.926;8.964;2023-02-11T13:13:28;100884.16;;;8.52;70.98
8318;BME280;4196;48.926;8.964;2023-02-11T13:16:39;100847.19;;;8.29;70.40
8318;BME280;4196;48.926;8.964;2023-02-11T13:25:44;100846.56;;;8.36;70.42
8318;BME280;4196;48.926;8.964;2023-02-11T13:28:41;100877.25;;;8.51;69.69
8318;BME280;4196;48.926;8.964;2023-02-11T13:31:29;100851.34;;;8.25;69.55
8318;BME280;4196;48.926;8.964;2023-02-11T13:34:53;100879.50;;;8.41;70.08
8318;BME280;4196;48.926;8.964;2023-02-11T13:37:46;100828.50;;;8.12;70.16
8318;BME280;4196;48.926;8.964;2023-02-11T13:40:37;100835.81;;;8.23;70.10
8318;BME280;4196;48.926;8.964;2023-02-11T13:43:26;100875.53;;;8.51;69.84
8318;BME280;4196;48.926;8.964;2023-02-11T13:46:16;100876.94;;;8.67;69.07
8318;BME280;4196;48.926;8.964;2023-02-11T13:49:02;100870.44;;;8.78;68.11
8318;BME280;4196;48.926;8.964;2023-02-11T13:51:50;100863.78;;;8.85;66.67
8318;BME280;4196;48.926;8.964;2023-02-11T13:54:38;100846.78;;;8.66;66.73
8318;BME280;4196;48.926;8.964;2023-02-11T13:57:29;100848.94;;;8.54;67.42
8318;BME280;4196;48.926;8.964;2023-02-11T14:00:48;100880.84;;;8.56;68.49
8318;BME280;4196;48.926;8.964;2023-02-11T14:03:38;100878.38;;;8.59;68.95
8318;BME280;4196;48.926;8.964;2023-02-11T14:16:15;100845.94;;;8.41;70.14
8318;BME280;4196;48.926;8.964;2023-02-11T14:22:43;100862.44;;;8.98;68.57
8318;BME280;4196;48.926;8.964;2023-02-11T14:25:32;100850.38;;;8.97;67.80
8318;BME280;4196;48.926;8.964;2023-02-11T14:28:25;100852.91;;;8.95;67.89
8318;BME280;4196;48.926;8.964;2023-02-11T14:31:22;100860.94;;;9.04;67.55
8318;BME280;4196;48.926;8.964;2023-02-11T14:34:39;100870.41;;;9.04;67.85
8318;BME280;4196;48.926;8.964;2023-02-11T14:40:35;100875.75;;;8.83;68.41
8318;BME280;4196;48.926;8.964;2023-02-11T14:43:30;100880.47;;;8.69;69.20
8318;BME280;4196;48.926;8.964;2023-02-11T14:46:21;100834.31;;;8.30;69.93
8318;BME280;4196;48.926;8.964;2023-02-11T14:49:18;100873.56;;;8.44;70.56
8318;BME280;4196;48.926;8.964;2023-02-11T14:52:46;100867.75;;;8.27;70.63
8318;BME280;4196;48.926;8.964;2023-02-11T14:55:36;100889.84;;;8.43;70.85
8318;BME280;4196;48.926;8.964;2023-02-11T14:58:30;100890.91;;;8.48;70.44
8318;BME280;4196;48.926;8.964;2023-02-11T15:04:32;100879.22;;;8.35;71.04
8318;BME280;4196;48.926;8.964;2023-02-11T15:07:18;100894.28;;;8.23;71.55
8318;BME280;4196;48.926;8.964;2023-02-11T15:10:05;100895.22;;;8.25;71.56
8318;BME280;4196;48.926;8.964;2023-02-11T15:12:52;100850.03;;;8.12;71.00
8318;BME280;4196;48.926;8.964;2023-02-11T15:15:39;100898.13;;;8.34;71.37
8318;BME280;4196;48.926;8.964;2023-02-11T15:18:32;100899.44;;;8.23;71.94
8318;BME280;4196;48.926;8.964;2023-02-11T15:21:22;100874.72;;;8.06;72.30
8318;BME280;4196;48.926;8.964;2023-02-11T15:24:27;100905.88;;;8.34;72.57
8318;BME280;4196;48.926;8.964;2023-02-11T15:27:14;100896.50;;;8.36;71.26
8318;BME280;4196;48.926;8.964;2023-02-11T15:30:01;100906.25;;;8.43;71.90
8318;BME280;4196;48.926;8.964;2023-02-11T15:33:03;100914.78;;;8.42;71.54
8318;BME280;4196;48.926;8.964;2023-02-11T15:35:51;100897.69;;;8.22;71.24
8318;BME280;4196;48.926;8.964;2023-02-11T15:38:37;100899.25;;;7.94;72.10
8318;BME280;4196;48.926;8.964;2023-02-11T15:41:37;100902.59;;;7.92;73.00
8318;BME280;4196;48.926;8.964;2023-02-11T15:44:28;100913.00;;;7.95;73.28
8318;BME280;4196;48.926;8.964;2023-02-11T15:47:20;100921.03;;;7.80;74.59
8318;BME280;4196;48.926;8.964;2023-02-11T15:50:19;100912.97;;;7.71;74.81
8318;BME280;4196;48.926;8.964;2023-02-11T15:53:26;100912.50;;;7.59;75.11
8318;BME280;4196;48.926;8.964;2023-02-11T15:56:24;100923.00;;;7.63;75.89
8318;BME280;4196;48.926;8.964;2023-02-11T15:59:16;100926.78;;;7.73;75.37
8318;BME280;4196;48.926;8.964;2023-02-11T16:02:17;100931.84;;;7.70;75.54
8318;BME280;4196;48.926;8.964;2023-02-11T16:05:07;100931.34;;;7.58;75.80
8318;BME280;4196;48.926;8.964;2023-02-11T16:07:54;100905.72;;;7.40;76.82
8318;BME280;4196;48.926;8.964;2023-02-11T16:10:54;100929.00;;;7.41;76.42
8318;BME280;4196;48.926;8.964;2023-02-11T16:13:45;100936.34;;;7.32;76.83
8318;BME280;4196;48.926;8.964;2023-02-11T16:16:33;100928.59;;;7.32;77.25
8318;BME280;4196;48.926;8.964;2023-02-11T16:19:21;100922.59;;;7.11;77.70
8318;BME280;4196;48.926;8.964;2023-02-11T16:22:16;100936.28;;;7.10;77.87
8318;BME280;4196;48.926;8.964;2023-02-11T16:25:02;100946.06;;;6.97;79.13
8318;BME280;4196;48.926;8.964;2023-02-11T16:27:53;100929.47;;;6.91;78.84
8318;BME280;4196;48.926;8.964;2023-02-11T16:30:41;100929.78;;;6.77;79.73
8318;BME280;4196;48.926;8.964;2023-02-11T16:33:28;100943.66;;;6.81;80.59
8318;BME280;4196;48.926;8.964;2023-02-11T16:36:15;100951.09;;;6.94;80.35
8318;BME280;4196;48.926;8.964;2023-02-11T16:39:04;100962.91;;;6.89;81.01
8318;BME280;4196;48.926;8.964;2023-02-11T16:41:51;100964.66;;;6.90;81.47
8318;BME280;4196;48.926;8.964;2023-02-11T16:44:37;100914.53;;;6.63;81.47
8318;BME280;4196;48.926;8.964;2023-02-11T16:47:26;100952.19;;;6.80;81.18
8318;BME280;4196;48.926;8.964;2023-02-11T16:50:21;100968.06;;;6.89;80.85
8318;BME280;4196;48.926;8.964;2023-02-11T16:53:09;100944.88;;;6.70;81.50
8318;BME280;4196;48.926;8.964;2023-02-11T16:55:56;100888.44;;;6.34;81.81
8318;BME280;4196;48.926;8.964;2023-02-11T16:58:43;100957.97;;;6.74;81.89
8318;BME280;4196;48.926;8.964;2023-02-11T17:01:31;100953.84;;;6.78;82.62
8318;BME280;4196;48.926;8.964;2023-02-11T17:04:23;100967.50;;;6.77;82.95
8318;BME280;4196;48.926;8.964;2023-02-11T17:07:10;100968.06;;;6.70;83.70
8318;BME280;4196;48.926;8.964;2023-02-11T17:09:57;100940.56;;;6.49;84.42